createdAt,value
2019-01-04T00:01:17.507Z,53.13
2019-01-04T00:03:46.706Z,37.58
2019-01-04T00:06:15.903Z,41.65
2019-01-04T00:08:45.423Z,51.88
2019-01-04T00:11:14.390Z,50.92
2019-01-04T00:13:43.724Z,45.25
2019-01-04T00:16:12.992Z,48.78
2019-01-04T00:18:42.514Z,44.33
2019-01-04T00:21:11.466Z,44.13
2019-01-04T00:23:40.481Z,46.58
2019-01-04T00:26:09.734Z,37.20
2019-01-04T00:28:38.750Z,43.23
2019-01-04T00:31:08.262Z,45.60
2019-01-04T00:33:37.202Z,42.13
2019-01-04T00:36:06.453Z,35.60
2019-01-04T00:38:35.981Z,29.35
2019-01-04T00:41:05.086Z,36.50
2019-01-04T00:43:34.362Z,38.53
2019-01-04T00:46:03.389Z,34.83
2019-01-04T00:48:32.686Z,33.70
2019-01-04T00:51:01.932Z,36.08
2019-01-04T00:53:30.948Z,36.10
2019-01-04T00:56:55.241Z,32.40
2019-01-04T01:00:01.020Z,39.08
2019-01-04T01:03:06.702Z,33.33
2019-01-04T01:06:34.920Z,48.40
2019-01-04T01:10:04.048Z,26.70
2019-01-04T01:13:15.340Z,31.62
2019-01-04T01:16:13.535Z,35.63
2019-01-04T01:19:07.074Z,28.12
2019-01-04T01:22:41.206Z,39.98
2019-01-04T01:26:12.219Z,38.02
2019-01-04T01:29:19.019Z,30.55
2019-01-04T01:31:58.610Z,25.20
2019-01-04T01:34:51.316Z,34.55
2019-01-04T01:38:12.462Z,39.73
2019-01-04T01:41:37.419Z,28.92
2019-01-04T01:44:48.556Z,30.30
2019-01-04T01:47:41.581Z,28.47
2019-01-04T01:50:43.715Z,38.67
2019-01-04T01:53:12.927Z,30.32
2019-01-04T01:55:42.181Z,35.28
2019-01-04T01:58:11.052Z,34.33
2019-01-04T02:00:40.410Z,29.00
2019-01-04T02:03:09.432Z,27.32
2019-01-04T02:05:38.476Z,32.80
2019-01-04T02:08:07.678Z,40.08
2019-01-04T02:10:36.681Z,32.10
2019-01-04T02:13:05.655Z,27.35
2019-01-04T02:15:34.740Z,31.95
2019-01-04T02:18:03.686Z,30.68
2019-01-04T02:20:32.715Z,32.80
2019-01-04T02:23:01.909Z,32.53
2019-01-04T02:25:30.867Z,33.63
2019-01-04T02:28:00.273Z,31.55
2019-01-04T02:30:29.510Z,36.40
2019-01-04T02:32:58.428Z,31.70
2019-01-04T02:35:27.369Z,34.98
2019-01-04T02:37:56.283Z,34.30
2019-01-04T02:40:25.162Z,23.27
2019-01-04T02:42:54.606Z,29.92
2019-01-04T02:45:23.546Z,34.53
2019-01-04T02:47:52.370Z,33.58
2019-01-04T02:50:21.422Z,28.55
2019-01-04T02:52:50.570Z,25.00
2019-01-04T02:55:19.526Z,29.57
2019-01-04T02:57:48.672Z,25.32
2019-01-04T03:00:17.575Z,21.37
2019-01-04T03:02:46.438Z,28.45
2019-01-04T03:05:15.427Z,36.95
2019-01-04T03:07:44.542Z,24.63
2019-01-04T03:10:13.629Z,30.27
2019-01-04T03:12:42.546Z,42.33
2019-01-04T03:15:11.562Z,27.55
2019-01-04T03:17:40.404Z,32.98
2019-01-04T03:20:09.269Z,37.13
2019-01-04T03:22:38.213Z,30.57
2019-01-04T03:25:07.229Z,27.02
2019-01-04T03:27:36.451Z,29.63
2019-01-04T03:30:05.583Z,30.57
2019-01-04T03:32:34.555Z,30.45
2019-01-04T03:35:03.645Z,34.40
2019-01-04T03:37:32.865Z,34.10
2019-01-04T03:40:02.145Z,30.82
2019-01-04T03:42:31.106Z,26.33
2019-01-04T03:45:00.671Z,41.65
2019-01-04T03:47:29.825Z,29.90
2019-01-04T03:49:59.018Z,27.70
2019-01-04T03:52:28.330Z,34.88
2019-01-04T03:54:57.205Z,28.52
2019-01-04T03:57:26.147Z,36.65
2019-01-04T03:59:55.393Z,24.95
2019-01-04T04:02:24.643Z,27.58
2019-01-04T04:04:53.841Z,26.35
2019-01-04T04:07:22.781Z,27.15
2019-01-04T04:09:51.626Z,26.62
2019-01-04T04:12:20.774Z,29.90
2019-01-04T04:14:49.928Z,29.15
2019-01-04T04:17:19.096Z,25.37
2019-01-04T04:19:47.959Z,32.80
2019-01-04T04:22:17.201Z,25.02
2019-01-04T04:24:46.590Z,26.93
2019-01-04T04:27:15.680Z,31.73
2019-01-04T04:29:44.489Z,35.33
2019-01-04T04:32:13.934Z,26.42
2019-01-04T04:34:43.348Z,35.00
2019-01-04T04:37:12.467Z,37.88
2019-01-04T04:39:41.608Z,33.80
2019-01-04T04:42:10.581Z,27.45
2019-01-04T04:44:39.667Z,31.25
2019-01-04T04:47:09.180Z,30.65
2019-01-04T04:49:38.662Z,30.85
2019-01-04T04:52:07.845Z,31.68
2019-01-04T04:54:36.829Z,28.77
2019-01-04T04:57:06.037Z,24.87
2019-01-04T04:59:34.868Z,32.00
2019-01-04T05:02:03.838Z,27.37
2019-01-04T05:04:33.031Z,25.68
2019-01-04T05:07:01.945Z,31.80
2019-01-04T05:09:31.266Z,25.85
2019-01-04T05:12:00.582Z,28.95
2019-01-04T05:14:29.430Z,26.73
2019-01-04T05:16:58.448Z,34.20
2019-01-04T05:19:27.891Z,26.33
2019-01-04T05:21:57.129Z,24.15
2019-01-04T05:24:26.398Z,23.50
2019-01-04T05:26:55.339Z,25.82
2019-01-04T05:29:24.225Z,27.00
2019-01-04T05:31:53.151Z,22.07
2019-01-04T05:34:22.144Z,25.23
2019-01-04T05:36:51.310Z,24.72
2019-01-04T05:39:20.750Z,27.55
2019-01-04T05:41:50.778Z,28.75
2019-01-04T05:44:20.020Z,28.17
2019-01-04T05:46:49.307Z,21.45
2019-01-04T05:49:25.105Z,25.25
2019-01-04T05:51:54.483Z,20.80
2019-01-04T05:54:24.057Z,24.35
2019-01-04T05:56:55.065Z,19.10
2019-01-04T05:59:24.458Z,22.42
2019-01-04T06:01:54.573Z,20.00
2019-01-04T06:04:25.214Z,28.85
2019-01-04T06:06:54.295Z,24.65
2019-01-04T06:09:23.778Z,33.40
2019-01-04T06:11:54.631Z,22.77
2019-01-04T06:14:24.002Z,24.55
2019-01-04T06:16:55.188Z,28.12
2019-01-04T06:19:26.985Z,23.07
2019-01-04T06:21:56.126Z,31.12
2019-01-04T06:24:25.536Z,35.03
2019-01-04T06:26:54.769Z,26.37
2019-01-04T06:29:23.767Z,24.77
2019-01-04T06:31:52.621Z,33.78
2019-01-04T06:34:21.742Z,33.42
2019-01-04T06:36:50.581Z,23.07
2019-01-04T06:39:19.490Z,20.02
2019-01-04T06:41:48.673Z,27.30
2019-01-04T06:44:17.891Z,32.03
2019-01-04T06:47:21.733Z,24.52
2019-01-04T06:49:51.473Z,27.07
2019-01-04T06:52:21.819Z,33.45
2019-01-04T06:55:43.705Z,33.45
2019-01-04T06:58:12.570Z,31.40
2019-01-04T07:00:41.449Z,32.98
2019-01-04T07:03:10.639Z,28.00
2019-01-04T07:05:39.640Z,34.55
2019-01-04T07:08:08.532Z,25.32
2019-01-04T07:10:37.865Z,29.65
2019-01-04T07:13:07.046Z,34.08
2019-01-04T07:15:36.362Z,25.48
2019-01-04T07:18:05.335Z,29.72
2019-01-04T07:20:34.487Z,23.75
2019-01-04T07:23:03.957Z,25.65
2019-01-04T07:25:33.245Z,31.17
2019-01-04T07:28:02.951Z,29.05
2019-01-04T07:30:32.235Z,23.02
2019-01-04T07:33:01.173Z,33.13
2019-01-04T07:35:30.369Z,26.37
2019-01-04T07:37:59.406Z,29.63
2019-01-04T07:40:28.430Z,28.10
2019-01-04T07:42:57.718Z,29.23
2019-01-04T07:45:27.297Z,27.62
2019-01-04T07:47:56.206Z,37.00
2019-01-04T07:50:25.218Z,28.50
2019-01-04T07:52:54.196Z,35.40
2019-01-04T07:55:23.175Z,27.48
2019-01-04T07:57:52.571Z,24.65
2019-01-04T08:00:21.672Z,26.02
2019-01-04T08:02:52.124Z,27.65
2019-01-04T08:05:25.355Z,23.25
2019-01-04T08:07:54.687Z,26.00
2019-01-04T08:10:23.821Z,25.30
2019-01-04T08:12:52.779Z,27.05
2019-01-04T08:15:21.709Z,27.52
2019-01-04T08:17:50.894Z,23.42
2019-01-04T08:20:19.857Z,22.42
2019-01-04T08:22:48.906Z,23.35
2019-01-04T08:25:18.518Z,21.90
2019-01-04T08:27:47.787Z,23.60
2019-01-04T08:30:19.065Z,19.50
2019-01-04T08:32:48.314Z,24.67
2019-01-04T08:35:17.551Z,23.60
2019-01-04T08:37:46.914Z,20.90
2019-01-04T08:40:18.577Z,44.88
2019-01-04T08:42:47.615Z,23.35
2019-01-04T08:45:16.817Z,22.90
2019-01-04T08:47:45.922Z,24.87
2019-01-04T08:50:16.017Z,30.80
2019-01-04T08:52:45.452Z,29.12
2019-01-04T08:55:25.607Z,29.05
2019-01-04T08:57:54.590Z,30.68
2019-01-04T09:00:23.745Z,31.02
2019-01-04T09:02:53.142Z,26.10
2019-01-04T09:05:22.084Z,27.07
2019-01-04T09:07:51.481Z,29.52
2019-01-04T09:10:21.842Z,30.00
2019-01-04T09:12:50.841Z,32.30
2019-01-04T09:15:19.830Z,25.05
2019-01-04T09:17:49.055Z,31.42
2019-01-04T09:20:18.655Z,27.67
2019-01-04T09:22:48.359Z,29.82
2019-01-04T09:25:17.673Z,23.40
2019-01-04T09:27:46.948Z,20.80
2019-01-04T09:30:16.169Z,25.27
2019-01-04T09:32:45.193Z,27.62
2019-01-04T09:35:14.415Z,20.45
2019-01-04T09:37:43.730Z,24.60
2019-01-04T09:40:13.180Z,24.35
2019-01-04T09:42:47.280Z,33.73
2019-01-04T09:45:16.534Z,21.30
2019-01-04T09:47:45.785Z,24.00
2019-01-04T09:50:14.729Z,28.65
2019-01-04T09:52:43.709Z,21.48
2019-01-04T09:55:12.736Z,24.57
2019-01-04T09:57:41.642Z,25.52
2019-01-04T10:00:12.182Z,24.27
2019-01-04T10:02:41.294Z,22.15
2019-01-04T10:05:11.137Z,24.12
2019-01-04T10:07:40.178Z,23.95
2019-01-04T10:10:11.504Z,20.32
2019-01-04T10:12:40.833Z,33.38
2019-01-04T10:15:15.780Z,27.30
2019-01-04T10:17:44.875Z,25.00
2019-01-04T10:20:14.075Z,28.27
2019-01-04T10:22:43.258Z,35.85
2019-01-04T10:25:12.344Z,22.75
2019-01-04T10:27:41.329Z,23.73
2019-01-04T10:30:25.273Z,24.12
2019-01-04T10:32:54.334Z,34.67
2019-01-04T10:35:23.425Z,18.00
2019-01-04T10:37:52.457Z,17.87
2019-01-04T10:40:21.779Z,13.62
2019-01-04T10:42:51.324Z,22.77
2019-01-04T10:45:20.346Z,21.85
2019-01-04T10:47:49.694Z,19.65
2019-01-04T10:50:18.949Z,19.70
2019-01-04T10:52:48.956Z,12.07
2019-01-04T10:55:18.928Z,14.93
2019-01-04T10:57:49.029Z,14.70
2019-01-04T11:00:18.018Z,14.33
2019-01-04T11:02:47.040Z,11.55
2019-01-04T11:05:15.960Z,8.78
2019-01-04T11:07:45.210Z,9.50
2019-01-04T11:10:14.551Z,6.45
2019-01-04T11:12:43.571Z,9.58
2019-01-04T11:15:12.669Z,8.53
2019-01-04T11:17:41.738Z,6.62
2019-01-04T11:20:48.737Z,12.43
2019-01-04T11:24:01.889Z,6.97
2019-01-04T11:26:38.218Z,5.40
2019-01-04T11:30:06.387Z,8.68
2019-01-04T11:33:08.777Z,9.05
2019-01-04T11:36:14.882Z,14.58
2019-01-04T11:39:08.391Z,7.62
2019-01-04T11:42:30.038Z,9.55
2019-01-04T11:45:27.249Z,14.73
2019-01-04T11:48:16.221Z,10.53
2019-01-04T11:51:05.458Z,8.93
2019-01-04T11:53:34.372Z,6.85
2019-01-04T11:56:03.200Z,8.30
2019-01-04T11:58:32.548Z,7.45
2019-01-04T12:01:01.539Z,16.62
2019-01-04T12:03:30.690Z,11.48
2019-01-04T12:05:59.688Z,8.78
2019-01-04T12:08:29.027Z,10.72
2019-01-04T12:10:58.164Z,7.08
2019-01-04T12:13:27.157Z,9.93
2019-01-04T12:15:56.374Z,13.30
2019-01-04T12:18:25.335Z,16.97
2019-01-04T12:20:54.274Z,12.47
2019-01-04T12:23:23.432Z,9.33
2019-01-04T12:25:52.321Z,11.60
2019-01-04T12:28:21.430Z,12.47
2019-01-04T12:30:50.615Z,16.77
2019-01-04T12:33:19.694Z,15.88
2019-01-04T12:35:48.996Z,12.00
2019-01-04T12:38:18.342Z,14.33
2019-01-04T12:40:47.458Z,14.98
2019-01-04T12:43:16.880Z,7.60
2019-01-04T12:45:45.810Z,9.53
2019-01-04T12:48:14.846Z,12.63
2019-01-04T12:50:43.744Z,7.62
2019-01-04T12:53:12.679Z,10.53
2019-01-04T12:55:42.056Z,9.05
2019-01-04T12:58:10.879Z,9.43
2019-01-04T13:00:40.126Z,9.55
2019-01-04T13:03:09.138Z,8.40
2019-01-04T13:05:38.150Z,11.90
2019-01-04T13:08:09.428Z,9.25
2019-01-04T13:10:38.254Z,9.65
2019-01-04T13:13:07.485Z,4.55
2019-01-04T13:15:36.390Z,7.00
2019-01-04T13:18:05.873Z,9.03
2019-01-04T13:20:35.011Z,4.55
2019-01-04T13:23:04.178Z,7.75
2019-01-04T13:25:33.100Z,6.87
2019-01-04T13:28:01.943Z,4.80
2019-01-04T13:30:31.117Z,8.40
2019-01-04T13:33:00.044Z,9.75
2019-01-04T13:35:30.090Z,8.93
2019-01-04T13:37:59.260Z,3.77
2019-01-04T13:40:28.187Z,9.85
2019-01-04T13:42:57.492Z,8.63
2019-01-04T13:45:26.467Z,3.20
2019-01-04T13:47:55.386Z,5.17
2019-01-04T13:50:24.546Z,10.25
2019-01-04T13:52:53.725Z,7.20
2019-01-04T13:55:22.573Z,8.25
2019-01-04T13:57:51.726Z,10.75
2019-01-04T14:00:21.273Z,12.23
2019-01-04T14:02:50.637Z,6.95
2019-01-04T14:05:19.839Z,8.90
2019-01-04T14:07:48.768Z,11.78
2019-01-04T14:10:17.985Z,6.85
2019-01-04T14:12:47.317Z,8.05
2019-01-04T14:15:16.714Z,7.85
2019-01-04T14:17:45.554Z,10.82
2019-01-04T14:20:14.783Z,6.70
2019-01-04T14:22:43.652Z,8.08
2019-01-04T14:25:12.802Z,8.13
2019-01-04T14:27:41.811Z,3.92
2019-01-04T14:30:12.160Z,5.15
2019-01-04T14:32:41.090Z,5.20
2019-01-04T14:35:10.109Z,6.37
2019-01-04T14:37:39.113Z,10.43
2019-01-04T14:40:09.629Z,3.87
2019-01-04T14:42:38.526Z,6.33
2019-01-04T14:45:07.899Z,4.30
2019-01-04T14:47:36.738Z,3.12
2019-01-04T14:50:07.561Z,5.83
2019-01-04T14:52:36.477Z,7.72
2019-01-04T14:55:05.820Z,2.90
2019-01-04T14:57:34.644Z,3.62
2019-01-04T15:00:03.655Z,2.85
2019-01-04T15:02:33.218Z,5.62
2019-01-04T15:05:02.058Z,4.78
2019-01-04T15:07:30.882Z,5.53
2019-01-04T15:10:00.215Z,4.50
2019-01-04T15:12:29.211Z,4.17
2019-01-04T15:14:58.089Z,8.45
2019-01-04T15:17:26.922Z,8.10
2019-01-04T15:19:56.420Z,8.93
2019-01-04T15:22:25.300Z,6.45
2019-01-04T15:24:54.514Z,6.42
2019-01-04T15:27:23.416Z,8.20
2019-01-04T15:29:52.316Z,5.10
2019-01-04T15:32:21.293Z,10.08
2019-01-04T15:34:50.873Z,8.65
2019-01-04T15:37:19.966Z,6.08
2019-01-04T15:39:49.171Z,5.97
2019-01-04T15:42:18.064Z,4.17
2019-01-04T15:44:47.003Z,8.30
2019-01-04T15:47:16.158Z,11.30
2019-01-04T15:49:45.084Z,7.05
2019-01-04T15:52:13.909Z,7.95
2019-01-04T15:54:43.043Z,9.20
2019-01-04T15:57:12.250Z,7.97
2019-01-04T15:59:41.051Z,7.90
2019-01-04T16:02:09.962Z,8.15
2019-01-04T16:04:39.101Z,8.40
2019-01-04T16:07:07.995Z,9.70
2019-01-04T16:09:36.963Z,8.48
2019-01-04T16:12:06.451Z,11.55
2019-01-04T16:14:35.328Z,6.47
2019-01-04T16:17:04.301Z,8.60
2019-01-04T16:19:33.377Z,9.90
2019-01-04T16:22:02.311Z,7.53
2019-01-04T16:24:31.253Z,7.70
2019-01-04T16:27:00.242Z,7.58
2019-01-04T16:29:30.090Z,12.05
2019-01-04T16:31:59.208Z,10.58
2019-01-04T16:34:28.293Z,7.20
2019-01-04T16:36:58.225Z,6.83
2019-01-04T16:39:27.326Z,6.80
2019-01-04T16:41:56.495Z,9.35
2019-01-04T16:44:25.628Z,10.05
2019-01-04T16:46:54.682Z,8.10
2019-01-04T16:49:23.606Z,10.28
2019-01-04T16:51:52.625Z,10.23
2019-01-04T16:54:21.690Z,13.18
2019-01-04T16:56:50.859Z,13.80
2019-01-04T16:59:20.023Z,14.33
2019-01-04T17:01:48.861Z,15.08
2019-01-04T17:04:18.080Z,13.93
2019-01-04T17:06:46.973Z,9.13
2019-01-04T17:09:15.847Z,13.62
2019-01-04T17:11:44.945Z,13.65
2019-01-04T17:14:14.467Z,15.63
2019-01-04T17:16:43.678Z,14.68
2019-01-04T17:19:12.733Z,17.50
2019-01-04T17:21:41.663Z,12.00
2019-01-04T17:24:10.891Z,14.80
2019-01-04T17:26:39.797Z,10.60
2019-01-04T17:29:09.073Z,20.30
2019-01-04T17:31:38.242Z,16.27
2019-01-04T17:34:07.490Z,21.33
2019-01-04T17:36:36.713Z,9.43
2019-01-04T17:39:07.554Z,15.15
2019-01-04T17:41:36.523Z,9.78
2019-01-04T17:44:05.947Z,8.65
2019-01-04T17:46:34.985Z,12.43
2019-01-04T17:49:04.195Z,10.70
2019-01-04T17:51:33.342Z,14.75
2019-01-04T17:54:02.508Z,12.78
2019-01-04T17:56:32.030Z,9.30
2019-01-04T17:59:01.392Z,11.48
2019-01-04T18:01:30.702Z,14.40
2019-01-04T18:03:59.636Z,18.87
2019-01-04T18:06:28.567Z,10.20
2019-01-04T18:08:57.675Z,7.30
2019-01-04T18:11:26.897Z,12.13
2019-01-04T18:13:55.877Z,14.00
2019-01-04T18:16:24.766Z,17.70
2019-01-04T18:18:53.912Z,7.45
2019-01-04T18:21:23.094Z,15.30
2019-01-04T18:23:52.097Z,12.60
2019-01-04T18:26:24.391Z,8.05
2019-01-04T18:28:51.997Z,15.13
2019-01-04T18:31:21.002Z,22.65
2019-01-04T18:33:50.374Z,13.18
2019-01-04T18:36:19.359Z,14.63
2019-01-04T18:38:48.309Z,15.63
2019-01-04T18:41:17.260Z,10.40
2019-01-04T18:43:46.546Z,22.35
2019-01-04T18:46:15.926Z,16.65
2019-01-04T18:48:44.909Z,13.98
2019-01-04T18:51:14.062Z,15.45
2019-01-04T18:53:42.989Z,12.07
2019-01-04T18:56:12.879Z,17.00
2019-01-04T18:58:42.210Z,12.63
2019-01-04T19:01:13.848Z,16.07
2019-01-04T19:03:41.679Z,20.32
2019-01-04T19:06:10.673Z,16.62
2019-01-04T19:08:39.628Z,16.65
2019-01-04T19:11:08.693Z,21.25
2019-01-04T19:13:37.531Z,14.05
2019-01-04T19:16:06.779Z,14.47
2019-01-04T19:18:35.749Z,17.75
2019-01-04T19:21:04.791Z,14.18
2019-01-04T19:23:39.443Z,19.02
2019-01-04T19:26:04.712Z,30.17
2019-01-04T19:28:33.932Z,21.62
2019-01-04T19:31:03.156Z,20.95
2019-01-04T19:33:32.094Z,23.92
2019-01-04T19:36:01.287Z,22.40
2019-01-04T19:38:30.516Z,17.82
2019-01-04T19:40:59.362Z,27.70
2019-01-04T19:43:28.527Z,21.35
2019-01-04T19:45:57.366Z,22.80
2019-01-04T19:48:26.336Z,22.10
2019-01-04T19:50:55.497Z,19.10
2019-01-04T19:53:27.008Z,27.32
2019-01-04T19:55:56.137Z,23.83
2019-01-04T19:58:25.522Z,17.02
2019-01-04T20:00:54.683Z,19.27
2019-01-04T20:03:23.547Z,22.62
2019-01-04T20:07:06.106Z,27.80
2019-01-04T20:10:28.407Z,23.52
2019-01-04T20:13:54.678Z,19.57
2019-01-04T20:17:00.057Z,27.27
2019-01-04T20:19:45.934Z,26.05
2019-01-04T20:22:46.064Z,25.62
2019-01-04T20:25:32.788Z,19.73
2019-01-04T20:28:19.256Z,19.98
2019-01-04T20:31:19.594Z,23.57
2019-01-04T20:34:07.114Z,34.53
2019-01-04T20:36:53.582Z,19.15
2019-01-04T20:39:40.308Z,16.95
2019-01-04T20:42:37.057Z,19.60
2019-01-04T20:45:25.109Z,26.70
2019-01-04T20:48:28.014Z,26.15
2019-01-04T20:51:20.142Z,25.75
2019-01-04T20:54:08.715Z,23.27
2019-01-04T20:57:02.623Z,34.55
2019-01-04T21:00:01.834Z,21.30
2019-01-04T21:02:50.222Z,24.95
2019-01-04T21:05:30.656Z,14.78
2019-01-04T21:08:25.092Z,20.75
2019-01-04T21:11:08.051Z,28.87
2019-01-04T21:14:02.339Z,25.27
2019-01-04T21:17:00.685Z,15.85
2019-01-04T21:19:47.526Z,25.77
2019-01-04T21:22:50.359Z,18.48
2019-01-04T21:25:29.702Z,25.72
2019-01-04T21:28:34.031Z,19.07
2019-01-04T21:31:20.721Z,29.32
2019-01-04T21:34:08.807Z,22.27
2019-01-04T21:36:59.522Z,19.27
2019-01-04T21:40:02.650Z,23.95
2019-01-04T21:42:54.700Z,28.50
2019-01-04T21:45:43.233Z,27.07
2019-01-04T21:48:30.204Z,148.05
2019-01-04T21:51:34.979Z,45.50
2019-01-04T21:54:21.467Z,31.75
2019-01-04T21:57:24.487Z,14.90
2019-01-04T22:00:19.404Z,25.25
2019-01-04T22:03:10.407Z,27.90
2019-01-04T22:06:04.671Z,23.85
2019-01-04T22:08:52.888Z,18.07
2019-01-04T22:11:44.430Z,14.28
2019-01-04T22:14:35.052Z,16.02
2019-01-04T22:17:33.290Z,28.90
2019-01-04T22:20:21.391Z,28.95
2019-01-04T22:23:12.271Z,22.30
2019-01-04T22:25:59.312Z,15.45
2019-01-04T22:28:53.390Z,19.75
2019-01-04T22:31:37.344Z,25.90
2019-01-04T22:34:24.745Z,16.80
2019-01-04T22:37:11.291Z,27.67
2019-01-04T22:40:14.395Z,26.15
2019-01-04T22:43:20.650Z,16.57
2019-01-04T22:46:16.002Z,18.30
2019-01-04T22:49:02.125Z,13.65
2019-01-04T22:51:48.508Z,16.75
2019-01-04T22:54:35.339Z,23.10
2019-01-04T22:57:32.149Z,19.15
2019-01-04T23:00:15.399Z,18.55
2019-01-04T23:03:04.059Z,24.90
2019-01-04T23:05:50.723Z,23.20
2019-01-04T23:08:36.235Z,20.25
2019-01-04T23:11:33.462Z,32.67
2019-01-04T23:14:20.380Z,15.05
2019-01-04T23:17:11.272Z,17.20
2019-01-04T23:20:07.374Z,12.18
2019-01-04T23:23:00.026Z,15.63
2019-01-04T23:25:54.155Z,12.93
2019-01-04T23:28:51.113Z,13.53
2019-01-04T23:31:44.971Z,14.60
2019-01-04T23:34:36.573Z,13.40
2019-01-04T23:37:23.134Z,11.25
2019-01-04T23:40:19.533Z,20.55
2019-01-04T23:43:23.056Z,9.50
2019-01-04T23:46:08.741Z,12.90
2019-01-04T23:49:06.062Z,13.93
2019-01-04T23:51:44.421Z,17.32
2019-01-04T23:54:31.748Z,17.20
2019-01-04T23:57:14.738Z,15.08
